createdAt,value
2022-10-30T00:00:07.010Z,1014.38
2022-10-30T00:01:07.016Z,1014.38
2022-10-30T00:02:07.153Z,1014.40
2022-10-30T00:03:07.091Z,1014.40
2022-10-30T00:04:07.006Z,1014.35
2022-10-30T00:05:07.013Z,1014.40
2022-10-30T00:06:07.113Z,1014.40
2022-10-30T00:07:07.002Z,1014.41
2022-10-30T00:08:07.018Z,1014.39
2022-10-30T00:09:07.011Z,1014.43
2022-10-30T00:10:06.995Z,1014.44
2022-10-30T00:11:06.997Z,1014.40
2022-10-30T00:12:06.995Z,1014.38
2022-10-30T00:13:07.005Z,1014.39
2022-10-30T00:14:07.003Z,1014.40
2022-10-30T00:15:06.995Z,1014.38
2022-10-30T00:16:07.001Z,1014.37
2022-10-30T00:17:06.990Z,1014.30
2022-10-30T00:18:07.000Z,1014.29
2022-10-30T00:19:06.998Z,1014.28
2022-10-30T00:20:06.995Z,1014.29
2022-10-30T00:21:06.996Z,1014.26
2022-10-30T00:22:08.030Z,1014.27
2022-10-30T00:23:06.974Z,1014.24
2022-10-30T00:24:06.989Z,1014.27
2022-10-30T00:25:07.016Z,1014.23
2022-10-30T00:26:06.973Z,1014.20
2022-10-30T00:27:06.968Z,1014.24
2022-10-30T00:28:06.977Z,1014.20
2022-10-30T00:29:06.969Z,1014.19
2022-10-30T00:30:06.969Z,1014.15
2022-10-30T00:31:06.968Z,1014.18
2022-10-30T00:32:06.977Z,1014.20
2022-10-30T00:33:06.976Z,1014.20
2022-10-30T00:34:07.003Z,1014.20
2022-10-30T00:35:06.959Z,1014.20
2022-10-30T00:36:06.961Z,1014.20
2022-10-30T00:37:06.953Z,1014.25
2022-10-30T00:38:06.957Z,1014.20
2022-10-30T00:39:06.962Z,1014.21
2022-10-30T00:40:06.975Z,1014.27
2022-10-30T00:41:06.947Z,1014.28
2022-10-30T00:42:06.945Z,1014.28
2022-10-30T00:43:06.954Z,1014.24
2022-10-30T00:44:06.968Z,1014.24
2022-10-30T00:45:06.949Z,1014.27
2022-10-30T00:46:06.945Z,1014.22
2022-10-30T00:47:06.992Z,1014.25
2022-10-30T00:48:06.936Z,1014.25
2022-10-30T00:49:06.934Z,1014.24
2022-10-30T00:50:06.944Z,1014.24
2022-10-30T00:51:06.927Z,1014.24
2022-10-30T00:52:06.936Z,1014.22
2022-10-30T00:53:06.933Z,1014.20
2022-10-30T00:54:06.930Z,1014.20
2022-10-30T00:55:06.947Z,1014.13
2022-10-30T00:56:06.942Z,1014.13
2022-10-30T00:57:06.940Z,1014.14
2022-10-30T00:58:06.922Z,1014.07
2022-10-30T00:59:06.920Z,1014.07
2022-10-30T01:00:06.915Z,1014.04
2022-10-30T01:01:06.952Z,1014.02
2022-10-30T01:02:07.036Z,1014.03
2022-10-30T01:03:06.915Z,1014.04
2022-10-30T01:04:06.905Z,1013.97
2022-10-30T01:05:06.944Z,1013.98
2022-10-30T01:06:06.906Z,1013.98
2022-10-30T01:07:06.917Z,1013.97
2022-10-30T01:08:06.914Z,1013.94
2022-10-30T01:09:07.003Z,1013.97
2022-10-30T01:10:06.929Z,1013.92
2022-10-30T01:11:06.902Z,1013.95
2022-10-30T01:12:06.908Z,1013.96
2022-10-30T01:13:06.886Z,1013.91
2022-10-30T01:14:06.896Z,1013.92
2022-10-30T01:15:06.887Z,1013.87
2022-10-30T01:16:06.879Z,1013.87
2022-10-30T01:17:06.883Z,1013.86
2022-10-30T01:18:06.879Z,1013.89
2022-10-30T01:19:06.906Z,1013.87
2022-10-30T01:20:06.885Z,1013.88
2022-10-30T01:21:06.876Z,1013.87
2022-10-30T01:22:06.881Z,1013.90
2022-10-30T01:23:06.877Z,1013.88
2022-10-30T01:24:06.889Z,1013.90
2022-10-30T01:25:06.885Z,1013.86
2022-10-30T01:26:06.869Z,1013.84
2022-10-30T01:27:06.863Z,1013.87
2022-10-30T01:28:06.875Z,1013.83
2022-10-30T01:29:06.863Z,1013.80
2022-10-30T01:30:06.877Z,1013.82
2022-10-30T01:31:06.856Z,1013.84
2022-10-30T01:32:06.863Z,1013.88
2022-10-30T01:33:06.866Z,1013.86
2022-10-30T01:34:06.866Z,1013.88
2022-10-30T01:35:06.866Z,1013.89
2022-10-30T01:36:06.866Z,1013.89
2022-10-30T01:37:06.855Z,1013.91
2022-10-30T01:38:06.846Z,1013.96
2022-10-30T01:39:06.854Z,1013.90
2022-10-30T01:40:06.833Z,1014.00
2022-10-30T01:41:06.855Z,1013.96
2022-10-30T01:42:06.844Z,1013.97
2022-10-30T01:43:06.860Z,1013.96
2022-10-30T01:44:06.871Z,1013.88
2022-10-30T01:45:06.835Z,1013.86
2022-10-30T01:46:06.832Z,1013.85
2022-10-30T01:47:06.832Z,1013.85
2022-10-30T01:48:06.836Z,1013.86
2022-10-30T01:49:06.834Z,1013.82
2022-10-30T01:50:06.830Z,1013.76
2022-10-30T01:51:06.859Z,1013.76
2022-10-30T01:52:06.823Z,1013.74
2022-10-30T01:53:06.822Z,1013.72
2022-10-30T01:54:06.815Z,1013.70
2022-10-30T01:55:06.808Z,1013.68
2022-10-30T01:56:06.832Z,1013.66
2022-10-30T01:57:06.818Z,1013.62
2022-10-30T01:58:06.819Z,1013.63
2022-10-30T01:59:06.814Z,1013.61
2022-10-30T02:00:06.799Z,1013.58
2022-10-30T02:01:06.828Z,1013.55
2022-10-30T02:02:06.973Z,1013.57
2022-10-30T02:03:06.798Z,1013.56
2022-10-30T02:04:06.798Z,1013.54
2022-10-30T02:05:06.792Z,1013.54
2022-10-30T02:06:06.837Z,1013.53
2022-10-30T02:07:06.791Z,1013.55
2022-10-30T02:08:06.797Z,1013.57
2022-10-30T02:09:06.783Z,1013.57
2022-10-30T02:10:06.794Z,1013.58
2022-10-30T02:11:06.790Z,1013.61
2022-10-30T02:12:06.797Z,1013.57
2022-10-30T02:13:06.801Z,1013.61
2022-10-30T02:14:06.776Z,1013.57
2022-10-30T02:15:06.781Z,1013.59
2022-10-30T02:16:06.798Z,1013.62
2022-10-30T02:17:06.818Z,1013.61
2022-10-30T02:18:06.771Z,1013.57
2022-10-30T02:19:06.767Z,1013.60
2022-10-30T02:20:06.759Z,1013.57
2022-10-30T02:21:06.767Z,1013.62
2022-10-30T02:22:06.792Z,1013.57
2022-10-30T02:23:07.334Z,1013.57
2022-10-30T02:24:06.751Z,1013.58
2022-10-30T02:25:06.764Z,1013.54
2022-10-30T02:26:06.758Z,1013.58
2022-10-30T02:27:06.764Z,1013.57
2022-10-30T02:28:06.745Z,1013.59
2022-10-30T02:29:06.740Z,1013.55
2022-10-30T02:30:06.749Z,1013.51
2022-10-30T02:31:06.740Z,1013.48
2022-10-30T02:32:06.740Z,1013.48
2022-10-30T02:33:06.777Z,1013.45
2022-10-30T02:34:06.738Z,1013.47
2022-10-30T02:35:06.743Z,1013.44
2022-10-30T02:36:06.724Z,1013.45
2022-10-30T02:37:06.727Z,1013.47
2022-10-30T02:38:06.716Z,1013.45
2022-10-30T02:39:06.723Z,1013.48
2022-10-30T02:40:06.739Z,1013.49
2022-10-30T02:41:06.722Z,1013.50
2022-10-30T02:42:06.731Z,1013.48
2022-10-30T02:43:06.706Z,1013.46
2022-10-30T02:44:06.739Z,1013.45
2022-10-30T02:45:06.714Z,1013.45
2022-10-30T02:46:06.703Z,1013.46
2022-10-30T02:47:06.697Z,1013.44
2022-10-30T02:48:06.811Z,1013.42
2022-10-30T02:49:06.707Z,1013.44
2022-10-30T02:50:06.690Z,1013.42
2022-10-30T02:51:06.707Z,1013.45
2022-10-30T02:52:06.687Z,1013.46
2022-10-30T02:53:06.697Z,1013.46
2022-10-30T02:54:06.693Z,1013.47
2022-10-30T02:55:06.691Z,1013.43
2022-10-30T02:56:06.711Z,1013.45
2022-10-30T02:57:06.686Z,1013.44
2022-10-30T02:58:06.680Z,1013.45
2022-10-30T02:59:06.673Z,1013.43
2022-10-30T03:00:06.675Z,1013.42
2022-10-30T03:01:06.695Z,1013.42
2022-10-30T03:02:06.722Z,1013.43
2022-10-30T03:03:06.670Z,1013.38
2022-10-30T03:04:06.682Z,1013.38
2022-10-30T03:05:06.670Z,1013.39
2022-10-30T03:06:06.664Z,1013.35
2022-10-30T03:07:06.683Z,1013.40
2022-10-30T03:08:06.663Z,1013.39
2022-10-30T03:09:06.656Z,1013.39
2022-10-30T03:10:06.794Z,1013.42
2022-10-30T03:11:06.654Z,1013.44
2022-10-30T03:12:06.645Z,1013.43
2022-10-30T03:13:06.657Z,1013.49
2022-10-30T03:14:06.656Z,1013.53
2022-10-30T03:15:06.641Z,1013.54
2022-10-30T03:16:06.694Z,1013.55
2022-10-30T03:17:06.634Z,1013.57
2022-10-30T03:18:06.640Z,1013.59
2022-10-30T03:19:06.630Z,1013.61
2022-10-30T03:20:06.633Z,1013.59
2022-10-30T03:21:06.635Z,1013.56
2022-10-30T03:22:06.669Z,1013.57
2022-10-30T03:23:06.621Z,1013.56
2022-10-30T03:24:06.628Z,1013.57
2022-10-30T03:25:06.636Z,1013.54
2022-10-30T03:26:06.623Z,1013.53
2022-10-30T03:27:06.620Z,1013.51
2022-10-30T03:28:06.627Z,1013.50
2022-10-30T03:29:06.626Z,1013.53
2022-10-30T03:30:06.606Z,1013.52
2022-10-30T03:31:06.612Z,1013.51
2022-10-30T03:32:06.608Z,1013.48
2022-10-30T03:33:06.601Z,1013.52
2022-10-30T03:34:06.614Z,1013.51
2022-10-30T03:35:06.623Z,1013.51
2022-10-30T03:36:06.623Z,1013.50
2022-10-30T03:37:06.593Z,1013.45
2022-10-30T03:38:06.590Z,1013.45
2022-10-30T03:39:06.583Z,1013.44
2022-10-30T03:40:06.623Z,1013.39
2022-10-30T03:41:06.595Z,1013.36
2022-10-30T03:42:06.594Z,1013.35
2022-10-30T03:43:06.579Z,1013.28
2022-10-30T03:44:06.569Z,1013.20
2022-10-30T03:45:06.582Z,1013.23
2022-10-30T03:46:06.566Z,1013.21
2022-10-30T03:47:06.610Z,1013.22
2022-10-30T03:48:06.583Z,1013.24
2022-10-30T03:49:06.562Z,1013.22
2022-10-30T03:50:06.561Z,1013.18
2022-10-30T03:51:06.630Z,1013.13
2022-10-30T03:52:06.555Z,1013.11
2022-10-30T03:53:06.568Z,1013.03
2022-10-30T03:54:06.566Z,1013.00
2022-10-30T03:55:06.550Z,1012.98
2022-10-30T03:56:06.554Z,1012.99
2022-10-30T03:57:06.550Z,1013.00
2022-10-30T03:58:06.560Z,1012.99
2022-10-30T03:59:06.538Z,1013.03
2022-10-30T04:00:06.548Z,1013.03
2022-10-30T04:01:06.583Z,1013.01
2022-10-30T04:02:06.698Z,1012.97
2022-10-30T04:03:06.542Z,1012.99
2022-10-30T04:04:06.559Z,1012.95
2022-10-30T04:05:06.530Z,1012.96
2022-10-30T04:06:06.527Z,1012.95
2022-10-30T04:07:06.531Z,1012.93
2022-10-30T04:08:06.524Z,1012.92
2022-10-30T04:09:06.529Z,1012.95
2022-10-30T04:10:06.541Z,1012.97
2022-10-30T04:11:06.569Z,1013.03
2022-10-30T04:12:06.512Z,1013.13
2022-10-30T04:13:06.519Z,1013.18
2022-10-30T04:14:06.525Z,1013.25
2022-10-30T04:15:06.518Z,1013.27
2022-10-30T04:16:06.501Z,1013.33
2022-10-30T04:17:06.630Z,1013.31
2022-10-30T04:18:06.509Z,1013.27
2022-10-30T04:19:06.492Z,1013.21
2022-10-30T04:20:06.495Z,1013.18
2022-10-30T04:21:06.489Z,1013.17
2022-10-30T04:22:06.489Z,1013.10
2022-10-30T04:23:06.495Z,1013.14
2022-10-30T04:24:06.484Z,1013.14
2022-10-30T04:25:06.490Z,1013.09
2022-10-30T04:26:06.478Z,1013.14
2022-10-30T04:27:06.478Z,1013.15
2022-10-30T04:28:06.486Z,1013.13
2022-10-30T04:29:06.485Z,1013.14
2022-10-30T04:30:06.479Z,1013.08
2022-10-30T04:31:06.470Z,1013.17
2022-10-30T04:32:06.484Z,1013.15
2022-10-30T04:33:06.473Z,1013.11
2022-10-30T04:34:06.467Z,1013.12
2022-10-30T04:35:06.501Z,1013.12
2022-10-30T04:36:06.467Z,1013.18
2022-10-30T04:37:06.466Z,1013.22
2022-10-30T04:38:06.460Z,1013.25
2022-10-30T04:39:06.475Z,1013.31
2022-10-30T04:40:06.450Z,1013.38
2022-10-30T04:41:06.491Z,1013.51
2022-10-30T04:42:06.450Z,1013.47
2022-10-30T04:43:06.454Z,1013.46
2022-10-30T04:44:06.451Z,1013.43
2022-10-30T04:45:11.148Z,1013.41
2022-10-30T04:46:06.445Z,1013.40
2022-10-30T04:47:06.440Z,1013.46
2022-10-30T04:48:06.437Z,1013.46
2022-10-30T04:49:06.445Z,1013.53
2022-10-30T04:50:06.428Z,1013.51
2022-10-30T04:51:06.431Z,1013.52
2022-10-30T04:52:06.431Z,1013.47
2022-10-30T04:53:06.430Z,1013.53
2022-10-30T04:54:06.423Z,1013.56
2022-10-30T04:55:06.437Z,1013.56
2022-10-30T04:56:06.460Z,1013.56
2022-10-30T04:57:06.425Z,1013.52
2022-10-30T04:58:06.419Z,1013.46
2022-10-30T04:59:06.412Z,1013.36
2022-10-30T05:00:06.408Z,1013.36
2022-10-30T05:01:06.464Z,1013.39
2022-10-30T05:02:06.620Z,1013.35
2022-10-30T05:03:06.411Z,1013.41
2022-10-30T05:04:06.402Z,1013.42
2022-10-30T05:05:06.430Z,1013.39
2022-10-30T05:06:06.395Z,1013.31
2022-10-30T05:07:06.406Z,1013.29
2022-10-30T05:08:06.394Z,1013.30
2022-10-30T05:09:06.392Z,1013.27
2022-10-30T05:10:06.397Z,1013.34
2022-10-30T05:11:06.388Z,1013.40
2022-10-30T05:12:06.385Z,1013.45
2022-10-30T05:13:06.555Z,1013.43
2022-10-30T05:14:06.394Z,1013.46
2022-10-30T05:15:06.386Z,1013.49
2022-10-30T05:16:06.386Z,1013.52
2022-10-30T05:17:06.373Z,1013.45
2022-10-30T05:18:06.378Z,1013.44
2022-10-30T05:19:06.373Z,1013.42
2022-10-30T05:20:06.360Z,1013.44
2022-10-30T05:21:06.366Z,1013.46
2022-10-30T05:22:06.355Z,1013.43
2022-10-30T05:23:06.357Z,1013.39
2022-10-30T05:24:06.372Z,1013.31
2022-10-30T05:25:06.360Z,1013.27
2022-10-30T05:26:06.352Z,1013.21
2022-10-30T05:27:06.357Z,1013.22
2022-10-30T05:28:06.344Z,1013.11
2022-10-30T05:29:06.351Z,1013.09
2022-10-30T05:30:06.350Z,1013.08
2022-10-30T05:31:06.343Z,1013.17
2022-10-30T05:32:06.401Z,1013.19
2022-10-30T05:33:06.334Z,1013.04
2022-10-30T05:34:07.509Z,1013.02
2022-10-30T05:35:06.344Z,1012.98
2022-10-30T05:36:06.341Z,1012.95
2022-10-30T05:37:06.325Z,1012.95
2022-10-30T05:38:06.332Z,1012.95
2022-10-30T05:39:06.336Z,1012.94
2022-10-30T05:40:06.367Z,1012.86
2022-10-30T05:41:06.326Z,1012.91
2022-10-30T05:42:09.821Z,1012.87
2022-10-30T05:43:06.309Z,1012.84
2022-10-30T05:44:06.308Z,1012.80
2022-10-30T05:45:06.322Z,1012.70
2022-10-30T05:46:06.332Z,1012.79
2022-10-30T05:47:06.307Z,1012.98
2022-10-30T05:48:06.306Z,1013.25
2022-10-30T05:49:06.309Z,1013.42
2022-10-30T05:50:06.301Z,1013.47
2022-10-30T05:51:06.383Z,1013.49
2022-10-30T05:52:06.297Z,1013.45
2022-10-30T05:53:06.291Z,1013.40
2022-10-30T05:54:06.293Z,1013.32
2022-10-30T05:55:06.283Z,1013.29
2022-10-30T05:56:06.283Z,1013.12
2022-10-30T05:57:06.286Z,1012.80
2022-10-30T05:58:06.279Z,1012.54
2022-10-30T05:59:06.277Z,1012.51
2022-10-30T06:00:06.275Z,1012.54
2022-10-30T06:01:06.275Z,1012.69
2022-10-30T06:02:06.334Z,1012.97
2022-10-30T06:03:06.327Z,1013.21
2022-10-30T06:04:06.273Z,1013.32
2022-10-30T06:05:06.259Z,1013.23
2022-10-30T06:06:06.271Z,1013.08
2022-10-30T06:07:06.268Z,1012.90
2022-10-30T06:08:06.278Z,1012.77
2022-10-30T06:09:06.255Z,1012.67
2022-10-30T06:10:06.259Z,1012.62
2022-10-30T06:11:06.273Z,1012.62
2022-10-30T06:12:06.255Z,1012.64
2022-10-30T06:13:06.320Z,1012.70
2022-10-30T06:14:06.243Z,1012.73
2022-10-30T06:15:06.243Z,1012.83
2022-10-30T06:16:06.240Z,1012.90
2022-10-30T06:17:06.252Z,1012.97
2022-10-30T06:18:06.233Z,1012.99
2022-10-30T06:19:06.250Z,1013.03
2022-10-30T06:20:06.245Z,1013.01
2022-10-30T06:21:06.231Z,1013.02
2022-10-30T06:22:06.223Z,1013.01
2022-10-30T06:23:06.225Z,1012.97
2022-10-30T06:24:06.237Z,1012.96
2022-10-30T06:25:06.244Z,1012.93
2022-10-30T06:26:06.214Z,1012.88
2022-10-30T06:27:06.214Z,1012.89
2022-10-30T06:28:06.225Z,1012.85
2022-10-30T06:29:06.217Z,1012.81
2022-10-30T06:30:06.264Z,1012.79
2022-10-30T06:31:06.267Z,1012.77
2022-10-30T06:32:06.900Z,1012.76
2022-10-30T06:33:06.203Z,1012.81
2022-10-30T06:34:06.323Z,1012.77
2022-10-30T06:35:06.203Z,1012.81
2022-10-30T06:36:06.207Z,1012.80
2022-10-30T06:37:06.300Z,1012.78
2022-10-30T06:38:06.197Z,1012.76
2022-10-30T06:39:06.193Z,1012.78
2022-10-30T06:40:06.229Z,1012.81
2022-10-30T06:41:06.310Z,1012.81
2022-10-30T06:42:06.237Z,1012.79
2022-10-30T06:43:06.213Z,1012.78
2022-10-30T06:44:06.174Z,1012.77
2022-10-30T06:45:06.175Z,1012.82
2022-10-30T06:47:06.174Z,1012.75
2022-10-30T06:48:06.177Z,1012.74
2022-10-30T06:49:06.177Z,1012.76
2022-10-30T06:50:06.179Z,1012.73
2022-10-30T06:51:06.162Z,1012.77
2022-10-30T06:52:06.225Z,1012.78
2022-10-30T06:53:06.165Z,1012.81
2022-10-30T06:54:06.157Z,1012.78
2022-10-30T06:55:06.174Z,1012.86
2022-10-30T06:56:06.147Z,1012.87
2022-10-30T06:57:06.145Z,1012.92
2022-10-30T06:58:06.153Z,1012.95
2022-10-30T06:59:06.173Z,1012.93
2022-10-30T07:00:06.156Z,1013.00
2022-10-30T07:01:06.140Z,1013.01
2022-10-30T07:02:08.543Z,1013.01
2022-10-30T07:03:06.146Z,1012.99
2022-10-30T07:04:06.148Z,1013.03
2022-10-30T07:05:06.160Z,1013.05
2022-10-30T07:06:06.131Z,1013.07
2022-10-30T07:07:06.134Z,1013.04
2022-10-30T07:08:06.139Z,1013.07
2022-10-30T07:09:06.210Z,1013.03
2022-10-30T07:10:06.133Z,1013.00
2022-10-30T07:11:06.119Z,1013.09
2022-10-30T07:12:07.212Z,1013.04
2022-10-30T07:13:06.118Z,1013.03
2022-10-30T07:14:06.115Z,1013.06
2022-10-30T07:15:06.124Z,1013.04
2022-10-30T07:16:06.112Z,1013.07
2022-10-30T07:17:06.118Z,1013.14
2022-10-30T07:18:06.109Z,1013.17
2022-10-30T07:19:06.102Z,1013.16
2022-10-30T07:20:06.135Z,1013.20
2022-10-30T07:21:06.106Z,1013.23
2022-10-30T07:22:06.102Z,1013.25
2022-10-30T07:23:06.108Z,1013.28
2022-10-30T07:24:06.106Z,1013.24
2022-10-30T07:25:06.095Z,1013.21
2022-10-30T07:26:06.106Z,1013.20
2022-10-30T07:27:06.099Z,1013.18
2022-10-30T07:28:06.096Z,1013.23
2022-10-30T07:29:06.101Z,1013.34
2022-10-30T07:30:06.108Z,1013.36
2022-10-30T07:31:06.092Z,1013.41
2022-10-30T07:32:06.095Z,1013.45
2022-10-30T07:33:06.082Z,1013.38
2022-10-30T07:34:06.075Z,1013.40
2022-10-30T07:35:06.078Z,1013.42
2022-10-30T07:36:06.108Z,1013.41
2022-10-30T07:37:06.086Z,1013.45
2022-10-30T07:38:06.090Z,1013.42
2022-10-30T07:39:06.082Z,1013.38
2022-10-30T07:40:09.996Z,1013.39
2022-10-30T07:41:06.070Z,1013.45
2022-10-30T07:42:06.082Z,1013.44
2022-10-30T07:43:06.077Z,1013.51
2022-10-30T07:44:06.076Z,1013.43
2022-10-30T07:45:06.154Z,1013.40
2022-10-30T07:46:06.066Z,1013.37
2022-10-30T07:47:06.077Z,1013.40
2022-10-30T07:48:06.079Z,1013.46
2022-10-30T07:49:06.074Z,1013.43
2022-10-30T07:50:06.072Z,1013.45
2022-10-30T07:51:06.068Z,1013.51
2022-10-30T07:52:06.062Z,1013.52
2022-10-30T07:53:06.061Z,1013.43
2022-10-30T07:54:06.068Z,1013.47
2022-10-30T07:55:06.076Z,1013.43
2022-10-30T07:56:06.067Z,1013.43
2022-10-30T07:57:06.061Z,1013.35
2022-10-30T07:58:06.096Z,1013.38
2022-10-30T07:59:06.067Z,1013.45
2022-10-30T08:00:06.075Z,1013.48
2022-10-30T08:01:06.081Z,1013.44
2022-10-30T08:02:06.221Z,1013.41
2022-10-30T08:03:06.068Z,1013.45
2022-10-30T08:04:06.069Z,1013.44
2022-10-30T08:05:06.078Z,1013.50
2022-10-30T08:06:06.107Z,1013.56
2022-10-30T08:07:06.076Z,1013.56
2022-10-30T08:08:06.084Z,1013.50
2022-10-30T08:09:06.091Z,1013.44
2022-10-30T08:10:06.084Z,1013.39
2022-10-30T08:11:06.084Z,1013.44
2022-10-30T08:12:06.119Z,1013.46
2022-10-30T08:13:06.122Z,1013.43
2022-10-30T08:14:06.107Z,1013.44
2022-10-30T08:15:06.101Z,1013.51
2022-10-30T08:16:06.138Z,1013.56
2022-10-30T08:17:06.114Z,1013.54
2022-10-30T08:18:06.125Z,1013.65
2022-10-30T08:19:06.109Z,1013.53
2022-10-30T08:20:06.115Z,1013.36
2022-10-30T08:21:06.118Z,1013.46
2022-10-30T08:22:06.104Z,1013.66
2022-10-30T08:23:06.112Z,1013.66
2022-10-30T08:24:06.143Z,1013.64
2022-10-30T08:25:06.129Z,1013.59
2022-10-30T08:26:06.119Z,1013.65
2022-10-30T08:27:06.127Z,1013.56
2022-10-30T08:28:06.130Z,1013.50
2022-10-30T08:29:06.126Z,1013.56
2022-10-30T08:30:06.123Z,1013.60
2022-10-30T08:31:06.145Z,1013.62
2022-10-30T08:32:06.139Z,1013.59
2022-10-30T08:33:06.142Z,1013.59
2022-10-30T08:34:06.149Z,1013.58
2022-10-30T08:35:06.139Z,1013.57
2022-10-30T08:36:06.180Z,1013.66
2022-10-30T08:37:06.150Z,1013.70
2022-10-30T08:38:06.159Z,1013.65
2022-10-30T08:39:06.165Z,1013.62
2022-10-30T08:40:06.159Z,1013.63
2022-10-30T08:41:06.165Z,1013.63
2022-10-30T08:42:06.164Z,1013.63
2022-10-30T08:43:06.188Z,1013.60
2022-10-30T08:44:06.185Z,1013.60
2022-10-30T08:45:06.196Z,1013.65
2022-10-30T08:46:06.185Z,1013.64
2022-10-30T08:47:06.196Z,1013.63
2022-10-30T08:48:06.190Z,1013.62
2022-10-30T08:49:06.192Z,1013.63
2022-10-30T08:50:06.234Z,1013.60
2022-10-30T08:51:06.203Z,1013.63
2022-10-30T08:52:06.211Z,1013.62
2022-10-30T08:53:06.208Z,1013.55
2022-10-30T08:54:06.226Z,1013.54
2022-10-30T08:55:06.237Z,1013.57
2022-10-30T08:56:06.228Z,1013.59
2022-10-30T08:57:06.229Z,1013.62
2022-10-30T08:58:06.224Z,1013.56
2022-10-30T08:59:06.231Z,1013.56
2022-10-30T09:00:06.235Z,1013.60
2022-10-30T09:01:06.312Z,1013.54
2022-10-30T09:02:06.329Z,1013.55
2022-10-30T09:03:06.255Z,1013.57
2022-10-30T09:04:06.257Z,1013.58
2022-10-30T09:06:06.266Z,1013.53
2022-10-30T09:07:08.875Z,1013.60
2022-10-30T09:08:06.280Z,1013.58
2022-10-30T09:09:06.278Z,1013.56
2022-10-30T09:10:06.281Z,1013.58
2022-10-30T09:11:06.275Z,1013.61
2022-10-30T09:12:06.285Z,1013.57
2022-10-30T09:13:06.324Z,1013.58
2022-10-30T09:14:06.297Z,1013.62
2022-10-30T09:15:06.297Z,1013.63
2022-10-30T09:16:06.300Z,1013.63
2022-10-30T09:17:06.301Z,1013.63
2022-10-30T09:18:06.307Z,1013.59
2022-10-30T09:19:06.311Z,1013.63
2022-10-30T09:20:06.323Z,1013.58
2022-10-30T09:21:06.315Z,1013.52
2022-10-30T09:22:06.318Z,1013.55
2022-10-30T09:23:06.317Z,1013.57
2022-10-30T09:24:06.320Z,1013.54
2022-10-30T09:25:06.325Z,1013.52
2022-10-30T09:26:06.328Z,1013.51
2022-10-30T09:27:06.325Z,1013.49
2022-10-30T09:28:06.340Z,1013.49
2022-10-30T09:29:06.342Z,1013.46
2022-10-30T09:30:06.353Z,1013.43
2022-10-30T09:31:06.347Z,1013.42
2022-10-30T09:32:06.338Z,1013.43
2022-10-30T09:33:06.362Z,1013.36
2022-10-30T09:34:06.356Z,1013.34
2022-10-30T09:35:06.366Z,1013.38
2022-10-30T09:36:06.348Z,1013.35
2022-10-30T09:37:06.357Z,1013.34
2022-10-30T09:38:06.360Z,1013.34
2022-10-30T09:39:06.364Z,1013.33
2022-10-30T09:40:06.438Z,1013.31
2022-10-30T09:41:06.351Z,1013.31
2022-10-30T09:42:06.399Z,1013.31
2022-10-30T09:43:06.361Z,1013.33
2022-10-30T09:44:06.373Z,1013.25
2022-10-30T09:45:27.795Z,1013.29
2022-10-30T09:46:06.359Z,1013.28
2022-10-30T09:47:06.370Z,1013.29
2022-10-30T09:48:06.365Z,1013.26
2022-10-30T09:49:06.395Z,1013.28
2022-10-30T09:50:06.371Z,1013.26
2022-10-30T09:51:06.390Z,1013.23
2022-10-30T09:52:06.372Z,1013.23
2022-10-30T09:53:06.391Z,1013.24
2022-10-30T09:54:06.385Z,1013.23
2022-10-30T09:55:06.391Z,1013.25
2022-10-30T09:56:06.429Z,1013.29
2022-10-30T09:57:06.393Z,1013.31
2022-10-30T09:58:06.416Z,1013.34
2022-10-30T09:59:06.404Z,1013.35
2022-10-30T10:00:06.438Z,1013.33
2022-10-30T10:01:07.400Z,1013.34
2022-10-30T10:02:06.590Z,1013.41
2022-10-30T10:03:06.459Z,1013.38
2022-10-30T10:04:06.442Z,1013.43
2022-10-30T10:05:06.407Z,1013.47
2022-10-30T10:06:06.406Z,1013.48
2022-10-30T10:07:06.404Z,1013.45
2022-10-30T10:08:06.417Z,1013.51
2022-10-30T10:09:06.409Z,1013.45
2022-10-30T10:10:06.429Z,1013.50
2022-10-30T10:11:06.403Z,1013.48
2022-10-30T10:12:06.426Z,1013.47
2022-10-30T10:13:06.832Z,1013.50
2022-10-30T10:14:06.421Z,1013.47
2022-10-30T10:15:06.417Z,1013.43
2022-10-30T10:16:06.419Z,1013.36
2022-10-30T10:17:06.416Z,1013.40
2022-10-30T10:18:06.417Z,1013.38
2022-10-30T10:19:06.412Z,1013.37
2022-10-30T10:20:06.421Z,1013.38
2022-10-30T10:21:06.437Z,1013.36
2022-10-30T10:22:06.430Z,1013.34
2022-10-30T10:23:06.438Z,1013.33
2022-10-30T10:24:06.438Z,1013.39
2022-10-30T10:25:06.430Z,1013.41
2022-10-30T10:26:06.440Z,1013.42
2022-10-30T10:27:06.423Z,1013.44
2022-10-30T10:28:06.445Z,1013.49
2022-10-30T10:29:06.433Z,1013.48
2022-10-30T10:30:06.554Z,1013.48
2022-10-30T10:31:06.431Z,1013.52
2022-10-30T10:32:06.457Z,1013.47
2022-10-30T10:33:06.440Z,1013.50
2022-10-30T10:34:06.457Z,1013.49
2022-10-30T10:35:06.444Z,1013.49
2022-10-30T10:36:06.446Z,1013.49
2022-10-30T10:37:06.461Z,1013.42
2022-10-30T10:38:06.448Z,1013.45
2022-10-30T10:39:06.455Z,1013.45
2022-10-30T10:40:06.455Z,1013.46
2022-10-30T10:41:06.450Z,1013.46
2022-10-30T10:42:06.459Z,1013.49
2022-10-30T10:43:06.468Z,1013.50
2022-10-30T10:44:06.458Z,1013.48
2022-10-30T10:45:06.445Z,1013.46
2022-10-30T10:46:06.467Z,1013.46
2022-10-30T10:47:07.553Z,1013.47
2022-10-30T10:48:06.495Z,1013.44
2022-10-30T10:49:06.489Z,1013.40
2022-10-30T10:50:06.469Z,1013.37
2022-10-30T10:51:06.475Z,1013.36
2022-10-30T10:52:06.466Z,1013.33
2022-10-30T10:53:06.459Z,1013.33
2022-10-30T10:54:06.467Z,1013.31
2022-10-30T10:55:06.477Z,1013.29
2022-10-30T10:56:06.463Z,1013.27
2022-10-30T10:57:06.477Z,1013.31
2022-10-30T10:58:06.476Z,1013.27
2022-10-30T10:59:06.468Z,1013.26
2022-10-30T11:00:06.470Z,1013.26
2022-10-30T11:01:06.509Z,1013.29
2022-10-30T11:02:06.589Z,1013.22
2022-10-30T11:03:06.568Z,1013.22
2022-10-30T11:04:06.477Z,1013.21
2022-10-30T11:05:06.479Z,1013.20
2022-10-30T11:06:06.491Z,1013.19
2022-10-30T11:07:06.488Z,1013.17
2022-10-30T11:08:06.493Z,1013.16
2022-10-30T11:09:06.492Z,1013.18
2022-10-30T11:10:06.491Z,1013.14
2022-10-30T11:11:06.492Z,1013.15
2022-10-30T11:12:06.489Z,1013.18
2022-10-30T11:13:06.573Z,1013.13
2022-10-30T11:14:06.497Z,1013.12
2022-10-30T11:15:06.512Z,1013.10
2022-10-30T11:16:06.517Z,1013.08
2022-10-30T11:17:06.515Z,1013.10
2022-10-30T11:19:06.500Z,1013.12
2022-10-30T11:20:06.500Z,1013.13
2022-10-30T11:21:06.503Z,1013.16
2022-10-30T11:22:06.497Z,1013.15
2022-10-30T11:23:06.506Z,1013.11
2022-10-30T11:24:06.503Z,1013.15
2022-10-30T11:25:06.511Z,1013.14
2022-10-30T11:26:06.513Z,1013.17
2022-10-30T11:27:06.516Z,1013.13
2022-10-30T11:28:06.509Z,1013.16
2022-10-30T11:29:06.511Z,1013.19
2022-10-30T11:30:06.518Z,1013.21
2022-10-30T11:31:06.509Z,1013.18
2022-10-30T11:32:06.514Z,1013.17
2022-10-30T11:33:06.540Z,1013.21
2022-10-30T11:34:06.523Z,1013.22
2022-10-30T11:35:06.515Z,1013.21
2022-10-30T11:36:10.305Z,1013.22
2022-10-30T11:37:06.536Z,1013.22
2022-10-30T11:38:06.525Z,1013.24
2022-10-30T11:39:06.519Z,1013.24
2022-10-30T11:40:06.532Z,1013.24
2022-10-30T11:41:06.528Z,1013.25
2022-10-30T11:42:06.531Z,1013.21
2022-10-30T11:43:06.533Z,1013.26
2022-10-30T11:44:06.526Z,1013.28
2022-10-30T11:45:06.533Z,1013.25
2022-10-30T11:46:06.529Z,1013.28
2022-10-30T11:47:06.541Z,1013.28
2022-10-30T11:48:10.640Z,1013.31
2022-10-30T11:49:06.538Z,1013.26
2022-10-30T11:50:06.541Z,1013.26
2022-10-30T11:51:06.574Z,1013.27
2022-10-30T11:52:06.540Z,1013.24
2022-10-30T11:53:06.570Z,1013.23
2022-10-30T11:54:06.554Z,1013.22
2022-10-30T11:55:06.553Z,1013.17
2022-10-30T11:56:06.543Z,1013.19
2022-10-30T11:57:06.542Z,1013.12
2022-10-30T11:58:06.547Z,1013.20
2022-10-30T11:59:06.561Z,1013.12
2022-10-30T12:00:06.556Z,1013.12
2022-10-30T12:01:06.563Z,1013.13
2022-10-30T12:02:06.671Z,1013.15
2022-10-30T12:03:06.565Z,1013.13
2022-10-30T12:04:06.567Z,1013.16
2022-10-30T12:05:06.563Z,1013.15
2022-10-30T12:06:06.560Z,1013.15
2022-10-30T12:07:06.602Z,1013.12
2022-10-30T12:08:06.586Z,1013.13